createdAt,value
2023-01-29T00:01:58.210Z,-1.30
2023-01-29T00:04:25.318Z,-1.30
2023-01-29T00:06:52.101Z,-1.30
2023-01-29T00:09:19.260Z,-1.30
2023-01-29T00:11:46.056Z,-1.30
2023-01-29T00:14:13.307Z,-1.40
2023-01-29T00:16:40.091Z,-1.40
2023-01-29T00:19:07.361Z,-1.40
2023-01-29T00:21:34.583Z,-1.40
2023-01-29T00:24:01.398Z,-1.40
2023-01-29T00:26:28.718Z,-1.40
2023-01-29T00:29:01.902Z,-1.40
2023-01-29T00:31:29.301Z,-1.50
2023-01-29T00:33:58.962Z,-1.40
2023-01-29T00:36:26.822Z,-1.50
2023-01-29T00:38:59.252Z,-1.50
2023-01-29T00:41:51.025Z,-1.50
2023-01-29T00:44:37.091Z,-1.50
2023-01-29T00:47:05.114Z,-1.40
2023-01-29T00:49:31.851Z,-1.50
2023-01-29T00:52:17.502Z,-1.50
2023-01-29T00:54:44.205Z,-1.50
2023-01-29T00:57:10.965Z,-1.50
2023-01-29T00:59:38.008Z,-1.50
2023-01-29T01:02:23.082Z,-1.50
2023-01-29T01:04:50.145Z,-1.60
2023-01-29T01:07:16.870Z,-1.50
2023-01-29T01:10:01.954Z,-1.50
2023-01-29T01:12:29.015Z,-1.50
2023-01-29T01:14:55.758Z,-1.50
2023-01-29T01:17:22.855Z,-1.40
2023-01-29T01:19:49.950Z,-1.50
2023-01-29T01:22:16.780Z,-1.50
2023-01-29T01:24:43.464Z,-1.50
2023-01-29T01:27:10.274Z,-1.60
2023-01-29T01:29:36.975Z,-1.60
2023-01-29T01:32:03.939Z,-1.60
2023-01-29T01:34:30.785Z,-1.60
2023-01-29T01:36:57.563Z,-1.60
2023-01-29T01:39:25.447Z,-1.70
2023-01-29T01:41:55.805Z,-1.70
2023-01-29T01:44:58.808Z,-1.80
2023-01-29T01:47:41.597Z,-1.80
2023-01-29T01:50:37.125Z,-1.80
2023-01-29T01:53:09.479Z,-1.80
2023-01-29T01:55:44.753Z,-1.80
2023-01-29T01:58:21.477Z,-1.80
2023-01-29T02:00:48.726Z,-1.80
2023-01-29T02:03:36.037Z,-1.70
2023-01-29T02:06:21.374Z,-1.70
2023-01-29T02:09:19.322Z,-1.70
2023-01-29T02:11:46.180Z,-1.70
2023-01-29T02:14:12.912Z,-1.70
2023-01-29T02:16:39.927Z,-1.70
2023-01-29T02:19:21.643Z,-1.70
2023-01-29T02:22:17.775Z,-1.80
2023-01-29T02:25:09.737Z,-1.80
2023-01-29T02:27:48.416Z,-1.80
2023-01-29T02:30:45.721Z,-1.80
2023-01-29T02:33:41.580Z,-1.70
2023-01-29T02:36:20.057Z,-1.80
2023-01-29T02:39:13.049Z,-1.80
2023-01-29T02:41:50.644Z,-1.80
2023-01-29T02:44:41.700Z,-1.90
2023-01-29T02:47:26.080Z,-1.90
2023-01-29T02:50:48.532Z,-1.90
2023-01-29T02:53:38.024Z,-2.00
2023-01-29T02:56:18.542Z,-2.00
2023-01-29T02:58:57.260Z,-2.00
2023-01-29T03:01:51.659Z,-2.00
2023-01-29T03:04:29.116Z,-2.10
2023-01-29T03:07:05.609Z,-2.10
2023-01-29T03:09:44.489Z,-2.20
2023-01-29T03:12:33.927Z,-2.10
2023-01-29T03:15:25.019Z,-2.20
2023-01-29T03:17:59.753Z,-2.10
2023-01-29T03:20:35.309Z,-2.10
2023-01-29T03:23:13.671Z,-2.10
2023-01-29T03:26:01.966Z,-2.10
2023-01-29T03:28:48.963Z,-2.10
2023-01-29T03:31:37.470Z,-2.10
2023-01-29T03:34:18.119Z,-2.20
2023-01-29T03:36:55.986Z,-2.20
2023-01-29T03:39:28.337Z,-2.20
2023-01-29T03:42:23.590Z,-2.20
2023-01-29T03:45:12.251Z,-2.20
2023-01-29T03:48:10.442Z,-2.10
2023-01-29T03:51:15.511Z,-2.20
2023-01-29T03:54:01.367Z,-2.20
2023-01-29T03:56:44.410Z,-2.20
2023-01-29T03:59:45.175Z,-2.20
2023-01-29T04:02:29.975Z,-2.20
2023-01-29T04:05:05.227Z,-2.20
2023-01-29T04:07:34.693Z,-2.20
2023-01-29T04:10:09.695Z,-2.20
2023-01-29T04:12:50.033Z,-2.20
2023-01-29T04:15:20.318Z,-2.20
2023-01-29T04:17:52.620Z,-2.10
2023-01-29T04:20:21.126Z,-2.10
2023-01-29T04:22:52.845Z,-2.10
2023-01-29T04:25:46.257Z,-2.10
2023-01-29T04:28:25.745Z,-2.10
2023-01-29T04:31:10.845Z,-2.20
2023-01-29T04:34:05.609Z,-2.30
2023-01-29T04:36:47.293Z,-2.40
2023-01-29T04:39:22.817Z,-2.30
2023-01-29T04:42:19.359Z,-2.30
2023-01-29T04:45:19.701Z,-2.30
2023-01-29T04:48:07.555Z,-2.30
2023-01-29T04:50:47.174Z,-2.20
2023-01-29T04:53:43.773Z,-2.20
2023-01-29T04:56:45.751Z,-2.20
2023-01-29T04:59:21.578Z,-2.20
2023-01-29T05:01:49.492Z,-2.30
2023-01-29T05:04:21.242Z,-2.30
2023-01-29T05:06:49.080Z,-2.30
2023-01-29T05:09:17.815Z,-2.30
2023-01-29T05:11:47.100Z,-2.30
2023-01-29T05:14:19.621Z,-2.30
2023-01-29T05:16:53.607Z,-2.30
2023-01-29T05:19:20.316Z,-2.30
2023-01-29T05:21:49.632Z,-2.40
2023-01-29T05:24:23.669Z,-2.40
2023-01-29T05:27:12.348Z,-2.40
2023-01-29T05:29:47.023Z,-2.40
2023-01-29T05:32:15.495Z,-2.40
2023-01-29T05:34:42.431Z,-2.40
2023-01-29T05:37:10.276Z,-2.40
2023-01-29T05:39:36.979Z,-2.40
2023-01-29T05:42:03.998Z,-2.40
2023-01-29T05:44:30.713Z,-2.40
2023-01-29T05:46:57.480Z,-2.50
2023-01-29T05:49:24.401Z,-2.50
2023-01-29T05:51:51.140Z,-2.40
2023-01-29T05:54:17.842Z,-2.40
2023-01-29T05:56:44.592Z,-2.40
2023-01-29T05:59:11.314Z,-2.40
2023-01-29T06:01:38.159Z,-2.40
2023-01-29T06:04:05.041Z,-2.30
2023-01-29T06:06:31.816Z,-2.30
2023-01-29T06:08:58.601Z,-2.30
2023-01-29T06:11:25.780Z,-2.30
2023-01-29T06:13:55.328Z,-2.30
2023-01-29T06:16:22.237Z,-2.30
2023-01-29T06:18:48.979Z,-2.30
2023-01-29T06:21:16.245Z,-2.30
2023-01-29T06:23:46.399Z,-2.30
2023-01-29T06:26:15.540Z,-2.30
2023-01-29T06:28:42.563Z,-2.30
2023-01-29T06:31:37.744Z,-2.30
2023-01-29T06:33:57.198Z,-2.40
2023-01-29T06:36:24.235Z,-2.40
2023-01-29T06:38:50.961Z,-2.50
2023-01-29T06:41:22.602Z,-2.50
2023-01-29T06:43:49.438Z,-2.50
2023-01-29T06:46:16.190Z,-2.50
2023-01-29T06:48:43.281Z,-2.40
2023-01-29T06:51:11.311Z,-2.40
2023-01-29T06:53:39.609Z,-2.30
2023-01-29T06:56:07.388Z,-2.30
2023-01-29T06:58:37.103Z,-2.30
2023-01-29T07:01:10.149Z,-2.20
2023-01-29T07:03:37.479Z,-2.20
2023-01-29T07:06:05.241Z,-2.20
2023-01-29T07:08:31.994Z,-2.20
2023-01-29T07:11:00.661Z,-2.10
2023-01-29T07:13:27.825Z,-2.20
2023-01-29T07:15:54.615Z,-2.10
2023-01-29T07:18:21.414Z,-2.20
2023-01-29T07:20:48.168Z,-2.20
2023-01-29T07:23:15.642Z,-2.20
2023-01-29T07:25:42.383Z,-2.10
2023-01-29T07:28:09.201Z,-2.20
2023-01-29T07:30:36.472Z,-2.20
2023-01-29T07:33:07.508Z,-2.20
2023-01-29T07:35:43.344Z,-2.20
2023-01-29T07:38:11.332Z,-2.10
2023-01-29T07:40:38.209Z,-2.10
2023-01-29T07:43:07.530Z,-2.10
2023-01-29T07:45:37.298Z,-2.20
2023-01-29T07:48:05.763Z,-2.30
2023-01-29T07:50:34.878Z,-2.30
2023-01-29T07:53:02.870Z,-2.40
2023-01-29T07:55:30.688Z,-2.40
2023-01-29T07:58:03.058Z,-2.40
2023-01-29T08:00:31.350Z,-2.30
2023-01-29T08:03:12.585Z,-2.20
2023-01-29T08:05:39.321Z,-2.10
2023-01-29T08:08:07.682Z,-2.20
2023-01-29T08:10:39.718Z,-2.20
2023-01-29T08:13:07.738Z,-2.10
2023-01-29T08:15:37.083Z,-2.10
2023-01-29T08:18:04.959Z,-2.10
2023-01-29T08:20:31.746Z,-2.00
2023-01-29T08:23:04.416Z,-2.00
2023-01-29T08:25:31.766Z,-2.00
2023-01-29T08:28:00.129Z,-2.00
2023-01-29T08:30:30.631Z,-2.10
2023-01-29T08:32:57.696Z,-2.20
2023-01-29T08:35:25.083Z,-2.20
2023-01-29T08:37:56.695Z,-2.20
2023-01-29T08:40:23.488Z,-2.30
2023-01-29T08:42:50.292Z,-2.30
2023-01-29T08:45:17.847Z,-2.20
2023-01-29T08:47:49.791Z,-2.20
2023-01-29T08:50:17.940Z,-2.10
2023-01-29T08:52:45.441Z,-2.00
2023-01-29T08:55:13.153Z,-1.90
2023-01-29T08:57:40.168Z,-1.80
2023-01-29T09:00:10.288Z,-1.80
2023-01-29T09:02:37.864Z,-1.70
2023-01-29T09:05:05.419Z,-1.60
2023-01-29T09:07:32.298Z,-1.60
2023-01-29T09:09:59.014Z,-1.50
2023-01-29T09:12:25.780Z,-1.50
2023-01-29T09:14:52.556Z,-1.40
2023-01-29T09:17:19.478Z,-1.30
2023-01-29T09:19:46.215Z,-1.20
2023-01-29T09:22:12.968Z,-1.10
2023-01-29T09:24:39.869Z,-1.10
2023-01-29T09:27:06.623Z,-1.00
2023-01-29T09:29:35.757Z,-1.00
2023-01-29T09:32:04.546Z,-1.10
2023-01-29T09:34:31.337Z,-1.00
2023-01-29T09:36:58.333Z,-0.90
2023-01-29T09:39:25.155Z,-0.60
2023-01-29T09:42:15.279Z,-0.40
2023-01-29T09:45:09.377Z,-0.50
2023-01-29T09:47:37.574Z,-0.50
2023-01-29T09:50:20.448Z,-0.50
2023-01-29T09:53:00.871Z,-0.50
2023-01-29T09:55:39.213Z,-0.50
2023-01-29T09:58:30.121Z,-0.50
2023-01-29T10:01:15.767Z,-0.50
2023-01-29T10:04:34.634Z,-0.50
2023-01-29T10:07:26.080Z,-0.40
2023-01-29T10:10:43.890Z,-0.30
2023-01-29T10:13:38.655Z,-0.20
2023-01-29T10:16:21.277Z,-0.30
2023-01-29T10:19:40.076Z,-0.30
2023-01-29T10:22:38.695Z,-0.10
2023-01-29T10:25:11.466Z,-0.10
2023-01-29T10:27:45.225Z,0.10
2023-01-29T10:30:41.222Z,-0.10
2023-01-29T10:33:18.333Z,-0.20
2023-01-29T10:35:54.699Z,-0.10
2023-01-29T10:38:35.087Z,-0.10
2023-01-29T10:41:10.566Z,0.00
2023-01-29T10:43:58.029Z,0.10
2023-01-29T10:46:44.977Z,0.10
2023-01-29T10:49:49.039Z,0.00
2023-01-29T10:52:39.137Z,0.00
2023-01-29T10:56:21.938Z,0.00
2023-01-29T10:58:55.674Z,-0.10
2023-01-29T11:01:23.547Z,-0.30
2023-01-29T11:04:16.940Z,-0.30
2023-01-29T11:06:44.460Z,-0.40
2023-01-29T11:09:42.967Z,-0.40
2023-01-29T11:12:17.514Z,-0.40
2023-01-29T11:14:59.138Z,-0.30
2023-01-29T11:17:26.836Z,-0.20
2023-01-29T11:19:58.006Z,-0.20
2023-01-29T11:22:28.924Z,-0.20
2023-01-29T11:25:19.117Z,-0.30
2023-01-29T11:28:01.699Z,-0.40
2023-01-29T11:30:41.082Z,-0.50
2023-01-29T11:33:23.697Z,-0.40
2023-01-29T11:35:52.476Z,-0.40
2023-01-29T11:38:28.881Z,-0.40
2023-01-29T11:41:14.339Z,-0.30
2023-01-29T11:43:41.049Z,-0.20
2023-01-29T11:46:15.258Z,0.00
2023-01-29T11:48:58.986Z,0.20
2023-01-29T11:51:33.707Z,0.30
2023-01-29T11:54:04.156Z,0.60
2023-01-29T11:56:46.165Z,0.60
2023-01-29T11:59:37.835Z,0.70
2023-01-29T12:02:19.640Z,0.80
2023-01-29T12:04:47.848Z,0.90
2023-01-29T12:07:18.531Z,1.00
2023-01-29T12:09:59.958Z,1.10
2023-01-29T12:12:39.871Z,1.00
2023-01-29T12:15:21.672Z,1.10
2023-01-29T12:18:03.075Z,1.10
2023-01-29T12:21:11.975Z,1.10
2023-01-29T12:24:00.449Z,0.90
2023-01-29T12:26:57.966Z,1.00
2023-01-29T12:29:52.447Z,1.10
2023-01-29T12:32:49.676Z,1.20
2023-01-29T12:35:32.925Z,1.10
2023-01-29T12:38:17.650Z,1.10
2023-01-29T12:41:12.898Z,1.30
2023-01-29T12:43:46.827Z,1.30
2023-01-29T12:46:42.033Z,1.40
2023-01-29T12:49:27.902Z,1.60
2023-01-29T12:52:07.665Z,1.90
2023-01-29T12:54:58.087Z,1.90
2023-01-29T12:57:44.555Z,1.70
2023-01-29T13:00:22.445Z,1.50
2023-01-29T13:03:29.493Z,1.50
2023-01-29T13:06:20.939Z,1.60
2023-01-29T13:08:55.422Z,1.60
2023-01-29T13:11:40.500Z,1.50
2023-01-29T13:14:31.564Z,1.60
2023-01-29T13:17:30.068Z,1.80
2023-01-29T13:20:10.353Z,1.90
2023-01-29T13:22:40.621Z,1.90
2023-01-29T13:25:16.593Z,1.60
2023-01-29T13:27:47.540Z,1.40
2023-01-29T13:30:25.011Z,1.30
2023-01-29T13:32:54.372Z,1.30
2023-01-29T13:35:23.627Z,1.40
2023-01-29T13:37:54.192Z,1.30
2023-01-29T13:40:30.068Z,1.30
2023-01-29T13:43:00.193Z,1.00
2023-01-29T13:45:45.191Z,1.00
2023-01-29T13:48:29.194Z,0.90
2023-01-29T13:51:00.454Z,0.90
2023-01-29T13:53:33.422Z,0.80
2023-01-29T13:56:44.671Z,0.80
2023-01-29T13:59:49.761Z,1.00
2023-01-29T14:02:26.231Z,1.20
2023-01-29T14:05:31.006Z,1.60
2023-01-29T14:08:03.314Z,2.10
2023-01-29T14:10:32.984Z,2.50
2023-01-29T14:13:26.963Z,2.70
2023-01-29T14:15:59.480Z,3.00
2023-01-29T14:18:32.272Z,3.50
2023-01-29T14:21:32.258Z,3.90
2023-01-29T14:24:18.924Z,4.50
2023-01-29T14:26:52.772Z,4.90
2023-01-29T14:29:34.215Z,4.90
2023-01-29T14:32:25.991Z,5.10
2023-01-29T14:35:18.290Z,5.50
2023-01-29T14:37:50.764Z,5.70
2023-01-29T14:40:20.609Z,6.60
2023-01-29T14:43:06.505Z,8.10
2023-01-29T14:45:44.508Z,8.80
2023-01-29T14:48:11.196Z,8.80
2023-01-29T14:50:45.583Z,8.30
2023-01-29T14:53:27.480Z,7.20
2023-01-29T14:56:10.358Z,6.10
2023-01-29T14:58:49.027Z,4.90
2023-01-29T15:01:36.882Z,4.00
2023-01-29T15:04:22.315Z,3.20
2023-01-29T15:07:09.239Z,2.70
2023-01-29T15:10:23.667Z,2.30
2023-01-29T15:13:07.643Z,1.90
2023-01-29T15:15:55.965Z,1.60
2023-01-29T15:18:41.971Z,1.50
2023-01-29T15:21:14.911Z,1.20
2023-01-29T15:23:43.248Z,1.10
2023-01-29T15:26:18.021Z,1.10
2023-01-29T15:29:02.179Z,1.00
2023-01-29T15:31:31.180Z,0.90
2023-01-29T15:34:02.960Z,0.80
2023-01-29T15:36:32.180Z,0.70
2023-01-29T15:39:18.811Z,0.60
2023-01-29T15:41:46.297Z,0.50
2023-01-29T15:44:20.923Z,0.40
2023-01-29T15:46:59.762Z,0.30
2023-01-29T15:49:39.493Z,0.30
2023-01-29T15:52:19.031Z,0.30
2023-01-29T15:54:46.962Z,0.10
2023-01-29T15:57:23.795Z,0.00
2023-01-29T15:59:54.264Z,0.00
2023-01-29T16:02:39.332Z,0.00
2023-01-29T16:05:18.285Z,-0.10
2023-01-29T16:07:46.625Z,-0.20
2023-01-29T16:10:26.199Z,-0.30
2023-01-29T16:12:53.828Z,-0.40
2023-01-29T16:15:40.062Z,-0.50
2023-01-29T16:18:28.542Z,-0.60
2023-01-29T16:20:58.777Z,-0.70
2023-01-29T16:23:31.188Z,-0.70
2023-01-29T16:26:06.865Z,-0.80
2023-01-29T16:28:40.705Z,-0.90
2023-01-29T16:31:07.840Z,-1.00
2023-01-29T16:33:38.941Z,-1.10
2023-01-29T16:36:18.572Z,-1.10
2023-01-29T16:38:54.135Z,-1.20
2023-01-29T16:41:23.862Z,-1.30
2023-01-29T16:44:01.660Z,-1.40
2023-01-29T16:46:45.698Z,-1.40
2023-01-29T16:49:30.881Z,-1.40
2023-01-29T16:52:18.428Z,-1.40
2023-01-29T16:54:45.244Z,-1.40
2023-01-29T16:57:22.689Z,-1.50
2023-01-29T16:59:55.377Z,-1.50
2023-01-29T17:02:33.227Z,-1.60
2023-01-29T17:05:10.086Z,-1.60
2023-01-29T17:07:37.808Z,-1.60
2023-01-29T17:10:06.849Z,-1.70
2023-01-29T17:12:34.215Z,-1.70
2023-01-29T17:15:43.464Z,-1.80
2023-01-29T17:18:19.578Z,-1.90
2023-01-29T17:20:47.637Z,-1.90
2023-01-29T17:23:14.582Z,-2.00
2023-01-29T17:25:42.124Z,-2.00
2023-01-29T17:28:14.314Z,-2.00
2023-01-29T17:30:41.237Z,-2.10
2023-01-29T17:33:23.296Z,-2.10
2023-01-29T17:35:50.599Z,-2.10
2023-01-29T17:38:25.846Z,-2.10
2023-01-29T17:41:07.003Z,-2.20
2023-01-29T17:43:34.797Z,-2.20
2023-01-29T17:46:01.716Z,-2.20
2023-01-29T17:48:30.554Z,-2.20
2023-01-29T17:51:02.460Z,-2.20
2023-01-29T17:53:44.333Z,-2.20
2023-01-29T17:56:29.401Z,-2.20
2023-01-29T17:58:56.465Z,-2.30
2023-01-29T18:01:23.230Z,-2.30
2023-01-29T18:03:52.074Z,-2.30
2023-01-29T18:06:29.785Z,-1.70
2023-01-29T18:08:56.630Z,-2.40
2023-01-29T18:11:23.858Z,-2.30
2023-01-29T18:13:50.986Z,-2.40
2023-01-29T18:16:18.413Z,-2.40
2023-01-29T18:18:45.277Z,-2.40
2023-01-29T18:21:11.995Z,-2.40
2023-01-29T18:23:38.865Z,-2.50
2023-01-29T18:26:07.395Z,-2.60
2023-01-29T18:28:34.191Z,-2.60
2023-01-29T18:31:06.533Z,-2.70
2023-01-29T18:33:34.200Z,-2.70
2023-01-29T18:36:00.960Z,-2.60
2023-01-29T18:38:27.738Z,-2.70
2023-01-29T18:41:02.746Z,-2.60
2023-01-29T18:43:29.581Z,-2.70
2023-01-29T18:45:59.828Z,-2.70
2023-01-29T18:48:26.568Z,-2.80
2023-01-29T18:50:53.417Z,-2.90
2023-01-29T18:53:20.422Z,-2.90
2023-01-29T18:56:05.122Z,-3.00
2023-01-29T18:58:36.982Z,-3.00
2023-01-29T19:01:11.508Z,-3.00
2023-01-29T19:03:40.516Z,-3.00
2023-01-29T19:06:10.686Z,-3.10
2023-01-29T19:08:38.202Z,-3.00
2023-01-29T19:11:07.981Z,-3.00
2023-01-29T19:13:38.659Z,-3.10
2023-01-29T19:16:10.278Z,-3.20
2023-01-29T19:18:37.187Z,-3.20
2023-01-29T19:21:10.664Z,-3.30
2023-01-29T19:23:38.177Z,-2.60
2023-01-29T19:26:06.201Z,-3.30
2023-01-29T19:28:33.155Z,-3.40
2023-01-29T19:31:00.824Z,-3.40
2023-01-29T19:33:28.508Z,-3.40
2023-01-29T19:35:59.841Z,-3.40
2023-01-29T19:38:27.529Z,-3.40
2023-01-29T19:40:55.221Z,-3.50
2023-01-29T19:43:22.066Z,-3.50
2023-01-29T19:45:50.792Z,-3.50
2023-01-29T19:48:21.442Z,-3.50
2023-01-29T19:51:00.723Z,-3.60
2023-01-29T19:53:29.301Z,-3.60
2023-01-29T19:56:05.884Z,-3.60
2023-01-29T19:58:33.736Z,-3.60
2023-01-29T20:01:07.357Z,-3.70
2023-01-29T20:03:34.378Z,-3.80
2023-01-29T20:06:06.525Z,-3.90
2023-01-29T20:08:34.845Z,-3.90
2023-01-29T20:11:02.525Z,-3.90
2023-01-29T20:13:29.740Z,-4.00
2023-01-29T20:15:56.757Z,-4.00
2023-01-29T20:18:23.953Z,-4.00
2023-01-29T20:20:52.939Z,-4.10
2023-01-29T20:23:36.528Z,-4.00
2023-01-29T20:26:05.724Z,-4.00
2023-01-29T20:28:32.680Z,-4.00
2023-01-29T20:30:59.493Z,-4.10
2023-01-29T20:33:27.413Z,-4.10
2023-01-29T20:35:57.423Z,-4.10
2023-01-29T20:38:30.015Z,-4.10
2023-01-29T20:41:08.350Z,-4.20
2023-01-29T20:43:35.282Z,-4.20
2023-01-29T20:46:02.577Z,-4.20
2023-01-29T20:48:30.801Z,-4.20
2023-01-29T20:51:09.649Z,-4.20
2023-01-29T20:53:37.075Z,-4.20
2023-01-29T20:56:04.915Z,-4.20
2023-01-29T20:58:32.050Z,-4.30
2023-01-29T21:00:59.122Z,-4.30
2023-01-29T21:03:26.031Z,-4.30
2023-01-29T21:05:54.171Z,-4.30
2023-01-29T21:08:20.928Z,-4.30
2023-01-29T21:10:51.586Z,-4.30
2023-01-29T21:13:18.310Z,-4.40
2023-01-29T21:15:45.152Z,-4.40
2023-01-29T21:18:11.879Z,-4.40
2023-01-29T21:20:38.684Z,-4.40
2023-01-29T21:23:07.151Z,-4.50
2023-01-29T21:25:34.256Z,-4.50
2023-01-29T21:28:02.734Z,-4.50
2023-01-29T21:30:29.719Z,-4.60
2023-01-29T21:32:56.466Z,-4.50
2023-01-29T21:35:23.267Z,-4.60
2023-01-29T21:37:49.978Z,-4.60
2023-01-29T21:40:17.444Z,-4.60
2023-01-29T21:43:03.369Z,-4.60
2023-01-29T21:45:30.076Z,-4.60
2023-01-29T21:47:56.933Z,-4.70
2023-01-29T21:50:23.740Z,-4.60
2023-01-29T21:52:50.484Z,-4.60
2023-01-29T21:55:17.210Z,-4.60
2023-01-29T21:57:44.411Z,-4.60
2023-01-29T22:00:12.409Z,-4.70
2023-01-29T22:02:39.664Z,-4.70
2023-01-29T22:05:18.916Z,-4.70
2023-01-29T22:07:50.161Z,-4.80
2023-01-29T22:10:19.256Z,-4.80
2023-01-29T22:12:47.232Z,-4.80
2023-01-29T22:15:15.740Z,-4.80
2023-01-29T22:17:43.652Z,-4.90
2023-01-29T22:20:13.197Z,-4.90
2023-01-29T22:22:40.313Z,-4.90
2023-01-29T22:25:07.947Z,-4.90
2023-01-29T22:27:34.954Z,-4.90
2023-01-29T22:30:02.200Z,-4.90
2023-01-29T22:32:29.088Z,-5.00
2023-01-29T22:34:55.845Z,-5.00
2023-01-29T22:37:22.554Z,-5.00
2023-01-29T22:39:49.274Z,-5.00
2023-01-29T22:42:19.102Z,-5.10
2023-01-29T22:44:45.847Z,-5.10
2023-01-29T22:47:12.579Z,-5.10
2023-01-29T22:49:39.305Z,-5.10
2023-01-29T22:52:11.936Z,-5.10
2023-01-29T22:54:41.981Z,-5.00
2023-01-29T22:57:12.599Z,-5.00
2023-01-29T22:59:39.916Z,-5.10
2023-01-29T23:02:08.084Z,-5.10
2023-01-29T23:04:34.864Z,-5.10
2023-01-29T23:07:01.634Z,-5.20
2023-01-29T23:09:28.415Z,-5.20
2023-01-29T23:11:55.194Z,-5.10
2023-01-29T23:14:21.993Z,-5.20
2023-01-29T23:16:48.761Z,-5.20
2023-01-29T23:19:15.458Z,-5.20
2023-01-29T23:21:42.188Z,-5.10
2023-01-29T23:24:09.825Z,-5.00
2023-01-29T23:26:55.256Z,-5.00
2023-01-29T23:29:22.042Z,-4.90
2023-01-29T23:31:48.769Z,-4.80
2023-01-29T23:34:15.606Z,-4.70
2023-01-29T23:36:42.498Z,-4.70
2023-01-29T23:39:09.726Z,-4.60
2023-01-29T23:41:36.514Z,-4.60
2023-01-29T23:44:03.975Z,-4.50
2023-01-29T23:46:31.683Z,-4.50
2023-01-29T23:48:58.641Z,-4.50
2023-01-29T23:51:25.530Z,-4.50
2023-01-29T23:53:52.315Z,-4.50
2023-01-29T23:56:19.086Z,-4.50
2023-01-29T23:58:46.243Z,-4.50
